Pagrindinis puslapis
METAR-TAF:

METAR-TAF

Oro uostai :

Tomskas, Rusija

platuma: 56-23-12N, ilguma: 085-12-38E, Aukštis: 182 m

Dabartinis oras

Ataskaita buvo paskelbta 33 minutes, ne 06:00 UTC
Vėjas 12 kt iš Vakarų/Šiaurės Vakarų su gūsio iki 21 kt
Temperatūra 14°C
Drėgmė 44%
Slėgis 1010 hPa
Matomumas 10 km arba daugiau
Mažai debesys ne aukštis 4600 ft

METAR: UNTT 190600Z 29006G11MPS 9999 FEW046 14/02 Q1010 R21/290250 NOSIG RMK QFE742

Laikas: 13:33 (06:33 UTC)

Prognozė

Ataskaita buvo paskelbta 1 valandą ir 33 minutes, ne 05:00 UTC
Prognozė galioja nuo 19 metu 06 UTC su 19 metu 15 UTC
Vėjas 12 kt iš Vakarų/Šiaurės Vakarų su gūsio iki 23 kt
Matomumas: 8000 m
Su prošvaistėmis ne aukštis 1600 ft, Liūtiniai kamuoliniai debesys.
Laikinai
nuo 19 metu 06 UTC su 19 metu 12 UTC
Vėjas 12 kt iš Šiaurės/Šiaurės Vakarų su gūsio iki 33 kt

TAF: UNTT 190500Z 1906/1915 29006G12MPS 8000 BKN016CB TEMPO 1906/1912 33006G17MPS

Orai ataskaitas ir orų prognozės (METAR, TAF).

turimą stotys yra geltonos ir raudonos taškus žemėlapyje.

Perkelti pele per norėdami pamatyti stoties vardą.

Tada spustelėkite, norėdami matyti oro stebėjimo ir prognozės.

Norėdami pakeisti žemėlapį: spustelėkite ant žalios mygtukų su juodo kryžiaus žemyn,; žalią mygtuką su brūkšneliu, jei norite nutolinti; arba žalių rodyklių gretimoms žemėlapius.


METAR-TAF: